sensor_id;sensor_type;location;lat;lon;timestamp;P1;durP1;ratioP1;P2;durP2;ratioP2
29196;SDS011;62796;42.654;23.316;2023-11-19T00:02:13;4.22;;;3.80;;
29196;SDS011;62796;42.654;23.316;2023-11-19T00:04:38;6.88;;;3.67;;
29196;SDS011;62796;42.654;23.316;2023-11-19T00:07:04;4.72;;;3.80;;
29196;SDS011;62796;42.654;23.316;2023-11-19T00:09:31;3.90;;;3.38;;
29196;SDS011;62796;42.654;23.316;2023-11-19T00:11:58;4.13;;;3.55;;
29196;SDS011;62796;42.654;23.316;2023-11-19T00:14:25;4.45;;;3.80;;
29196;SDS011;62796;42.654;23.316;2023-11-19T00:16:50;4.30;;;3.75;;
29196;SDS011;62796;42.654;23.316;2023-11-19T00:19:16;4.72;;;3.40;;
29196;SDS011;62796;42.654;23.316;2023-11-19T00:21:42;5.20;;;3.70;;
29196;SDS011;62796;42.654;23.316;2023-11-19T00:24:07;5.55;;;4.45;;
29196;SDS011;62796;42.654;23.316;2023-11-19T00:26:33;3.80;;;3.40;;
29196;SDS011;62796;42.654;23.316;2023-11-19T00:28:59;5.43;;;3.75;;
29196;SDS011;62796;42.654;23.316;2023-11-19T00:31:24;4.28;;;3.78;;
29196;SDS011;62796;42.654;23.316;2023-11-19T00:33:53;4.88;;;3.88;;
29196;SDS011;62796;42.654;23.316;2023-11-19T00:36:18;4.15;;;3.42;;
29196;SDS011;62796;42.654;23.316;2023-11-19T00:38:44;5.10;;;3.85;;
29196;SDS011;62796;42.654;23.316;2023-11-19T00:41:09;5.75;;;4.00;;
29196;SDS011;62796;42.654;23.316;2023-11-19T00:43:35;4.55;;;3.80;;
29196;SDS011;62796;42.654;23.316;2023-11-19T00:46:01;5.57;;;3.95;;
29196;SDS011;62796;42.654;23.316;2023-11-19T00:48:27;4.72;;;3.90;;
29196;SDS011;62796;42.654;23.316;2023-11-19T00:50:53;4.65;;;4.03;;
29196;SDS011;62796;42.654;23.316;2023-11-19T00:53:18;4.28;;;3.58;;
29196;SDS011;62796;42.654;23.316;2023-11-19T00:55:44;6.07;;;4.13;;
29196;SDS011;62796;42.654;23.316;2023-11-19T00:58:09;4.15;;;3.72;;
29196;SDS011;62796;42.654;23.316;2023-11-19T01:00:34;4.28;;;3.80;;
29196;SDS011;62796;42.654;23.316;2023-11-19T01:03:00;4.38;;;3.60;;
29196;SDS011;62796;42.654;23.316;2023-11-19T01:05:26;4.40;;;3.92;;
29196;SDS011;62796;42.654;23.316;2023-11-19T01:07:53;4.32;;;3.60;;
29196;SDS011;62796;42.654;23.316;2023-11-19T01:10:19;4.75;;;3.75;;
29196;SDS011;62796;42.654;23.316;2023-11-19T01:12:45;4.53;;;3.72;;
29196;SDS011;62796;42.654;23.316;2023-11-19T01:15:10;4.95;;;4.28;;
29196;SDS011;62796;42.654;23.316;2023-11-19T01:17:36;6.10;;;3.28;;
29196;SDS011;62796;42.654;23.316;2023-11-19T01:20:03;4.30;;;3.47;;
29196;SDS011;62796;42.654;23.316;2023-11-19T01:22:31;7.63;;;4.07;;
29196;SDS011;62796;42.654;23.316;2023-11-19T01:24:57;4.28;;;3.80;;
29196;SDS011;62796;42.654;23.316;2023-11-19T01:27:23;4.43;;;4.03;;
29196;SDS011;62796;42.654;23.316;2023-11-19T01:29:49;3.67;;;3.38;;
29196;SDS011;62796;42.654;23.316;2023-11-19T01:32:14;4.97;;;4.15;;
29196;SDS011;62796;42.654;23.316;2023-11-19T01:34:40;4.32;;;3.70;;
29196;SDS011;62796;42.654;23.316;2023-11-19T01:37:06;4.30;;;3.65;;
29196;SDS011;62796;42.654;23.316;2023-11-19T01:39:31;3.67;;;3.30;;
29196;SDS011;62796;42.654;23.316;2023-11-19T01:41:56;3.92;;;3.33;;
29196;SDS011;62796;42.654;23.316;2023-11-19T01:44:22;5.30;;;3.35;;
29196;SDS011;62796;42.654;23.316;2023-11-19T01:46:47;3.60;;;3.30;;
29196;SDS011;62796;42.654;23.316;2023-11-19T01:49:17;3.70;;;3.17;;
29196;SDS011;62796;42.654;23.316;2023-11-19T01:51:44;3.85;;;3.28;;
29196;SDS011;62796;42.654;23.316;2023-11-19T01:54:12;4.30;;;3.28;;
29196;SDS011;62796;42.654;23.316;2023-11-19T01:56:40;4.03;;;3.17;;
29196;SDS011;62796;42.654;23.316;2023-11-19T01:59:06;4.30;;;3.40;;
29196;SDS011;62796;42.654;23.316;2023-11-19T02:01:32;3.75;;;3.30;;
29196;SDS011;62796;42.654;23.316;2023-11-19T02:04:03;3.92;;;3.08;;
29196;SDS011;62796;42.654;23.316;2023-11-19T02:06:29;3.75;;;3.33;;
29196;SDS011;62796;42.654;23.316;2023-11-19T02:08:58;3.53;;;3.20;;
29196;SDS011;62796;42.654;23.316;2023-11-19T02:11:24;4.13;;;3.63;;
29196;SDS011;62796;42.654;23.316;2023-11-19T02:13:54;3.45;;;2.80;;
29196;SDS011;62796;42.654;23.316;2023-11-19T02:16:20;3.67;;;3.10;;
29196;SDS011;62796;42.654;23.316;2023-11-19T02:18:45;3.97;;;3.30;;
29196;SDS011;62796;42.654;23.316;2023-11-19T02:21:11;4.20;;;3.10;;
29196;SDS011;62796;42.654;23.316;2023-11-19T02:23:36;3.60;;;3.30;;
29196;SDS011;62796;42.654;23.316;2023-11-19T02:29:06;3.28;;;2.90;;
29196;SDS011;62796;42.654;23.316;2023-11-19T02:31:34;3.33;;;3.00;;
29196;SDS011;62796;42.654;23.316;2023-11-19T02:34:00;4.07;;;3.13;;
29196;SDS011;62796;42.654;23.316;2023-11-19T02:36:27;4.13;;;3.30;;
29196;SDS011;62796;42.654;23.316;2023-11-19T02:38:53;4.10;;;3.13;;
29196;SDS011;62796;42.654;23.316;2023-11-19T02:41:18;3.63;;;3.30;;
29196;SDS011;62796;42.654;23.316;2023-11-19T02:43:44;5.88;;;3.38;;
29196;SDS011;62796;42.654;23.316;2023-11-19T02:46:09;3.58;;;3.22;;
29196;SDS011;62796;42.654;23.316;2023-11-19T02:48:35;7.03;;;3.10;;
29196;SDS011;62796;42.654;23.316;2023-11-19T02:51:01;5.05;;;3.50;;
29196;SDS011;62796;42.654;23.316;2023-11-19T02:53:28;4.40;;;2.95;;
29196;SDS011;62796;42.654;23.316;2023-11-19T02:55:54;3.88;;;3.25;;
29196;SDS011;62796;42.654;23.316;2023-11-19T02:58:26;3.92;;;3.30;;
29196;SDS011;62796;42.654;23.316;2023-11-19T03:00:54;3.42;;;3.10;;
29196;SDS011;62796;42.654;23.316;2023-11-19T03:03:24;3.92;;;2.95;;
29196;SDS011;62796;42.654;23.316;2023-11-19T03:05:55;4.03;;;3.20;;
29196;SDS011;62796;42.654;23.316;2023-11-19T03:08:21;4.82;;;3.28;;
29196;SDS011;62796;42.654;23.316;2023-11-19T03:10:47;3.80;;;3.15;;
29196;SDS011;62796;42.654;23.316;2023-11-19T03:13:13;6.70;;;3.47;;
29196;SDS011;62796;42.654;23.316;2023-11-19T03:15:40;6.03;;;3.67;;
29196;SDS011;62796;42.654;23.316;2023-11-19T03:18:05;3.60;;;3.30;;
29196;SDS011;62796;42.654;23.316;2023-11-19T03:20:31;3.67;;;3.30;;
29196;SDS011;62796;42.654;23.316;2023-11-19T03:22:57;4.22;;;3.45;;
29196;SDS011;62796;42.654;23.316;2023-11-19T03:25:28;3.45;;;3.10;;
29196;SDS011;62796;42.654;23.316;2023-11-19T03:27:59;3.90;;;3.50;;
29196;SDS011;62796;42.654;23.316;2023-11-19T03:30:26;3.35;;;3.00;;
29196;SDS011;62796;42.654;23.316;2023-11-19T03:32:51;4.50;;;3.47;;
29196;SDS011;62796;42.654;23.316;2023-11-19T03:35:17;3.00;;;2.65;;
29196;SDS011;62796;42.654;23.316;2023-11-19T03:37:42;3.83;;;3.30;;
29196;SDS011;62796;42.654;23.316;2023-11-19T03:40:08;3.22;;;2.80;;
29196;SDS011;62796;42.654;23.316;2023-11-19T03:42:35;3.95;;;3.35;;
29196;SDS011;62796;42.654;23.316;2023-11-19T03:45:00;3.67;;;3.17;;
29196;SDS011;62796;42.654;23.316;2023-11-19T03:47:26;4.25;;;3.42;;
29196;SDS011;62796;42.654;23.316;2023-11-19T03:49:51;4.25;;;3.13;;
29196;SDS011;62796;42.654;23.316;2023-11-19T03:52:17;3.20;;;2.88;;
29196;SDS011;62796;42.654;23.316;2023-11-19T03:54:43;4.45;;;3.17;;
29196;SDS011;62796;42.654;23.316;2023-11-19T03:57:10;3.88;;;2.90;;
29196;SDS011;62796;42.654;23.316;2023-11-19T03:59:37;4.45;;;3.63;;
29196;SDS011;62796;42.654;23.316;2023-11-19T04:02:02;4.70;;;3.42;;
29196;SDS011;62796;42.654;23.316;2023-11-19T04:04:27;4.43;;;3.45;;
29196;SDS011;62796;42.654;23.316;2023-11-19T04:06:54;3.97;;;3.40;;
29196;SDS011;62796;42.654;23.316;2023-11-19T04:09:20;4.35;;;3.28;;
29196;SDS011;62796;42.654;23.316;2023-11-19T04:11:46;5.03;;;3.90;;
29196;SDS011;62796;42.654;23.316;2023-11-19T04:14:14;4.32;;;3.38;;
29196;SDS011;62796;42.654;23.316;2023-11-19T04:16:40;3.97;;;3.20;;
29196;SDS011;62796;42.654;23.316;2023-11-19T04:19:06;4.95;;;3.47;;
29196;SDS011;62796;42.654;23.316;2023-11-19T04:21:31;7.32;;;3.58;;
29196;SDS011;62796;42.654;23.316;2023-11-19T04:23:57;6.90;;;3.90;;
29196;SDS011;62796;42.654;23.316;2023-11-19T04:26:23;6.03;;;3.50;;
29196;SDS011;62796;42.654;23.316;2023-11-19T04:28:48;3.38;;;3.08;;
29196;SDS011;62796;42.654;23.316;2023-11-19T04:31:14;3.40;;;3.10;;
29196;SDS011;62796;42.654;23.316;2023-11-19T04:33:41;3.92;;;3.38;;
29196;SDS011;62796;42.654;23.316;2023-11-19T04:36:07;4.20;;;3.35;;
29196;SDS011;62796;42.654;23.316;2023-11-19T04:38:32;4.85;;;3.60;;
29196;SDS011;62796;42.654;23.316;2023-11-19T04:40:58;3.92;;;2.72;;
29196;SDS011;62796;42.654;23.316;2023-11-19T04:43:23;4.65;;;3.42;;
29196;SDS011;62796;42.654;23.316;2023-11-19T04:45:49;4.18;;;3.40;;
29196;SDS011;62796;42.654;23.316;2023-11-19T04:48:14;7.20;;;3.50;;
29196;SDS011;62796;42.654;23.316;2023-11-19T04:50:40;3.70;;;3.25;;
29196;SDS011;62796;42.654;23.316;2023-11-19T04:53:05;6.45;;;3.60;;
29196;SDS011;62796;42.654;23.316;2023-11-19T04:55:30;4.28;;;3.42;;
29196;SDS011;62796;42.654;23.316;2023-11-19T04:57:56;4.95;;;3.40;;
29196;SDS011;62796;42.654;23.316;2023-11-19T05:00:21;3.38;;;2.92;;
29196;SDS011;62796;42.654;23.316;2023-11-19T05:02:47;3.47;;;2.88;;
29196;SDS011;62796;42.654;23.316;2023-11-19T05:05:12;4.13;;;3.30;;
29196;SDS011;62796;42.654;23.316;2023-11-19T05:07:38;4.50;;;3.20;;
29196;SDS011;62796;42.654;23.316;2023-11-19T05:10:03;4.82;;;3.03;;
29196;SDS011;62796;42.654;23.316;2023-11-19T05:12:31;5.82;;;3.65;;
29196;SDS011;62796;42.654;23.316;2023-11-19T05:14:56;3.72;;;3.10;;
29196;SDS011;62796;42.654;23.316;2023-11-19T05:17:23;3.33;;;2.97;;
29196;SDS011;62796;42.654;23.316;2023-11-19T05:19:48;4.20;;;3.10;;
29196;SDS011;62796;42.654;23.316;2023-11-19T05:22:14;3.88;;;3.42;;
29196;SDS011;62796;42.654;23.316;2023-11-19T05:24:40;4.38;;;3.47;;
29196;SDS011;62796;42.654;23.316;2023-11-19T05:27:06;12.32;;;3.83;;
29196;SDS011;62796;42.654;23.316;2023-11-19T05:29:32;3.70;;;3.10;;
29196;SDS011;62796;42.654;23.316;2023-11-19T05:31:58;6.88;;;3.90;;
29196;SDS011;62796;42.654;23.316;2023-11-19T05:34:23;5.57;;;3.90;;
29196;SDS011;62796;42.654;23.316;2023-11-19T05:36:49;7.32;;;3.35;;
29196;SDS011;62796;42.654;23.316;2023-11-19T05:39:15;4.38;;;3.40;;
29196;SDS011;62796;42.654;23.316;2023-11-19T05:41:41;4.50;;;3.38;;
29196;SDS011;62796;42.654;23.316;2023-11-19T05:44:07;4.80;;;3.40;;
29196;SDS011;62796;42.654;23.316;2023-11-19T05:46:32;6.28;;;3.47;;
29196;SDS011;62796;42.654;23.316;2023-11-19T05:48:58;4.88;;;3.45;;
29196;SDS011;62796;42.654;23.316;2023-11-19T05:51:23;4.97;;;3.78;;
29196;SDS011;62796;42.654;23.316;2023-11-19T05:53:49;4.30;;;3.33;;
29196;SDS011;62796;42.654;23.316;2023-11-19T05:56:15;5.97;;;3.40;;
29196;SDS011;62796;42.654;23.316;2023-11-19T05:58:46;4.53;;;3.58;;
29196;SDS011;62796;42.654;23.316;2023-11-19T06:01:13;3.90;;;3.30;;
29196;SDS011;62796;42.654;23.316;2023-11-19T06:03:38;6.00;;;3.58;;
29196;SDS011;62796;42.654;23.316;2023-11-19T06:06:04;4.00;;;3.30;;
29196;SDS011;62796;42.654;23.316;2023-11-19T06:08:30;6.88;;;3.67;;
29196;SDS011;62796;42.654;23.316;2023-11-19T06:10:56;5.35;;;3.63;;
29196;SDS011;62796;42.654;23.316;2023-11-19T06:13:22;4.82;;;3.60;;
29196;SDS011;62796;42.654;23.316;2023-11-19T06:15:47;4.13;;;3.33;;
29196;SDS011;62796;42.654;23.316;2023-11-19T06:18:12;5.15;;;3.65;;
29196;SDS011;62796;42.654;23.316;2023-11-19T06:20:39;4.38;;;3.65;;
29196;SDS011;62796;42.654;23.316;2023-11-19T06:23:05;6.40;;;3.60;;
29196;SDS011;62796;42.654;23.316;2023-11-19T06:25:31;5.60;;;3.83;;
29196;SDS011;62796;42.654;23.316;2023-11-19T06:27:57;5.50;;;3.97;;
29196;SDS011;62796;42.654;23.316;2023-11-19T06:30:23;5.90;;;3.92;;
29196;SDS011;62796;42.654;23.316;2023-11-19T06:32:50;5.57;;;4.40;;
29196;SDS011;62796;42.654;23.316;2023-11-19T06:35:16;5.28;;;3.70;;
29196;SDS011;62796;42.654;23.316;2023-11-19T06:37:42;5.30;;;4.03;;
29196;SDS011;62796;42.654;23.316;2023-11-19T06:40:08;7.25;;;4.18;;
29196;SDS011;62796;42.654;23.316;2023-11-19T06:42:34;5.97;;;4.15;;
29196;SDS011;62796;42.654;23.316;2023-11-19T06:45:00;4.80;;;3.70;;
29196;SDS011;62796;42.654;23.316;2023-11-19T06:47:26;5.43;;;4.35;;
29196;SDS011;62796;42.654;23.316;2023-11-19T06:49:55;4.72;;;3.55;;
29196;SDS011;62796;42.654;23.316;2023-11-19T06:52:21;4.68;;;3.72;;
29196;SDS011;62796;42.654;23.316;2023-11-19T06:54:46;5.65;;;3.92;;
29196;SDS011;62796;42.654;23.316;2023-11-19T06:57:12;5.53;;;3.30;;
29196;SDS011;62796;42.654;23.316;2023-11-19T06:59:38;6.10;;;4.07;;
29196;SDS011;62796;42.654;23.316;2023-11-19T07:02:04;3.90;;;3.15;;
29196;SDS011;62796;42.654;23.316;2023-11-19T07:04:30;5.35;;;3.90;;
29196;SDS011;62796;42.654;23.316;2023-11-19T07:06:56;7.88;;;4.45;;
29196;SDS011;62796;42.654;23.316;2023-11-19T07:09:22;5.32;;;4.18;;
29196;SDS011;62796;42.654;23.316;2023-11-19T07:11:48;5.88;;;4.38;;
29196;SDS011;62796;42.654;23.316;2023-11-19T07:14:16;9.95;;;5.63;;
29196;SDS011;62796;42.654;23.316;2023-11-19T07:16:42;10.38;;;5.32;;
29196;SDS011;62796;42.654;23.316;2023-11-19T07:19:08;8.63;;;5.03;;
29196;SDS011;62796;42.654;23.316;2023-11-19T07:21:34;6.47;;;4.90;;
29196;SDS011;62796;42.654;23.316;2023-11-19T07:24:00;6.35;;;4.22;;
29196;SDS011;62796;42.654;23.316;2023-11-19T07:26:25;5.75;;;4.63;;
29196;SDS011;62796;42.654;23.316;2023-11-19T07:28:52;12.65;;;5.05;;
29196;SDS011;62796;42.654;23.316;2023-11-19T07:31:17;6.95;;;4.50;;
29196;SDS011;62796;42.654;23.316;2023-11-19T07:33:44;6.65;;;5.10;;
29196;SDS011;62796;42.654;23.316;2023-11-19T07:36:13;5.68;;;4.72;;
29196;SDS011;62796;42.654;23.316;2023-11-19T07:38:39;7.82;;;4.50;;
29196;SDS011;62796;42.654;23.316;2023-11-19T07:41:05;8.15;;;5.18;;
29196;SDS011;62796;42.654;23.316;2023-11-19T07:43:30;6.80;;;4.78;;
29196;SDS011;62796;42.654;23.316;2023-11-19T07:45:56;8.38;;;4.97;;
29196;SDS011;62796;42.654;23.316;2023-11-19T07:48:24;7.97;;;4.47;;
29196;SDS011;62796;42.654;23.316;2023-11-19T07:50:49;5.82;;;4.43;;
29196;SDS011;62796;42.654;23.316;2023-11-19T07:53:18;5.35;;;4.20;;
29196;SDS011;62796;42.654;23.316;2023-11-19T07:55:44;6.63;;;4.20;;
29196;SDS011;62796;42.654;23.316;2023-11-19T07:58:12;6.93;;;5.22;;
29196;SDS011;62796;42.654;23.316;2023-11-19T08:00:38;7.63;;;5.03;;
29196;SDS011;62796;42.654;23.316;2023-11-19T08:03:03;11.50;;;7.35;;
29196;SDS011;62796;42.654;23.316;2023-11-19T08:05:29;8.05;;;5.57;;
29196;SDS011;62796;42.654;23.316;2023-11-19T08:07:55;6.80;;;4.70;;
29196;SDS011;62796;42.654;23.316;2023-11-19T08:10:21;9.40;;;5.80;;
29196;SDS011;62796;42.654;23.316;2023-11-19T08:12:47;8.80;;;5.22;;
29196;SDS011;62796;42.654;23.316;2023-11-19T08:15:13;7.85;;;5.22;;
29196;SDS011;62796;42.654;23.316;2023-11-19T08:17:38;7.82;;;4.85;;
29196;SDS011;62796;42.654;23.316;2023-11-19T08:20:04;9.18;;;4.53;;
29196;SDS011;62796;42.654;23.316;2023-11-19T08:22:32;12.93;;;7.10;;
29196;SDS011;62796;42.654;23.316;2023-11-19T08:24:58;12.32;;;6.90;;
29196;SDS011;62796;42.654;23.316;2023-11-19T08:27:23;7.72;;;5.65;;
29196;SDS011;62796;42.654;23.316;2023-11-19T08:29:55;7.97;;;5.63;;
29196;SDS011;62796;42.654;23.316;2023-11-19T08:32:22;10.02;;;6.22;;
29196;SDS011;62796;42.654;23.316;2023-11-19T08:34:50;7.13;;;5.43;;
29196;SDS011;62796;42.654;23.316;2023-11-19T08:37:16;10.25;;;6.38;;
29196;SDS011;62796;42.654;23.316;2023-11-19T08:39:45;9.27;;;5.57;;
29196;SDS011;62796;42.654;23.316;2023-11-19T08:42:11;8.38;;;5.47;;
29196;SDS011;62796;42.654;23.316;2023-11-19T08:44:37;8.48;;;4.80;;
29196;SDS011;62796;42.654;23.316;2023-11-19T08:47:02;7.45;;;5.20;;
29196;SDS011;62796;42.654;23.316;2023-11-19T08:49:28;6.00;;;4.53;;
29196;SDS011;62796;42.654;23.316;2023-11-19T08:51:53;8.55;;;5.15;;
29196;SDS011;62796;42.654;23.316;2023-11-19T08:54:18;9.95;;;5.00;;
29196;SDS011;62796;42.654;23.316;2023-11-19T08:56:45;6.45;;;5.00;;
29196;SDS011;62796;42.654;23.316;2023-11-19T08:59:10;5.85;;;4.32;;
29196;SDS011;62796;42.654;23.316;2023-11-19T09:01:36;5.97;;;4.45;;
29196;SDS011;62796;42.654;23.316;2023-11-19T09:04:01;5.40;;;4.63;;
29196;SDS011;62796;42.654;23.316;2023-11-19T09:06:27;7.20;;;4.25;;
29196;SDS011;62796;42.654;23.316;2023-11-19T09:08:52;7.35;;;4.80;;
29196;SDS011;62796;42.654;23.316;2023-11-19T09:11:18;6.28;;;4.60;;
29196;SDS011;62796;42.654;23.316;2023-11-19T09:13:43;10.50;;;5.78;;
29196;SDS011;62796;42.654;23.316;2023-11-19T09:16:11;7.30;;;5.07;;
29196;SDS011;62796;42.654;23.316;2023-11-19T09:18:37;7.50;;;4.10;;
29196;SDS011;62796;42.654;23.316;2023-11-19T09:21:02;7.20;;;5.50;;
29196;SDS011;62796;42.654;23.316;2023-11-19T09:23:28;7.35;;;4.65;;
29196;SDS011;62796;42.654;23.316;2023-11-19T09:25:57;8.23;;;5.28;;
29196;SDS011;62796;42.654;23.316;2023-11-19T09:28:23;8.38;;;5.47;;
29196;SDS011;62796;42.654;23.316;2023-11-19T09:30:48;8.27;;;5.28;;
29196;SDS011;62796;42.654;23.316;2023-11-19T09:33:13;8.73;;;4.70;;
29196;SDS011;62796;42.654;23.316;2023-11-19T09:35:39;10.57;;;5.28;;
29196;SDS011;62796;42.654;23.316;2023-11-19T09:38:04;10.40;;;5.90;;
29196;SDS011;62796;42.654;23.316;2023-11-19T09:40:30;6.88;;;4.70;;
29196;SDS011;62796;42.654;23.316;2023-11-19T09:42:56;7.03;;;4.13;;
29196;SDS011;62796;42.654;23.316;2023-11-19T09:45:22;8.85;;;5.00;;
29196;SDS011;62796;42.654;23.316;2023-11-19T09:47:52;8.95;;;4.88;;
29196;SDS011;62796;42.654;23.316;2023-11-19T09:50:19;7.18;;;4.88;;
29196;SDS011;62796;42.654;23.316;2023-11-19T09:52:45;6.75;;;5.05;;
29196;SDS011;62796;42.654;23.316;2023-11-19T09:55:12;6.80;;;4.90;;
29196;SDS011;62796;42.654;23.316;2023-11-19T09:57:40;6.10;;;4.40;;
29196;SDS011;62796;42.654;23.316;2023-11-19T10:00:10;5.20;;;4.20;;
29196;SDS011;62796;42.654;23.316;2023-11-19T10:02:37;7.90;;;4.68;;
29196;SDS011;62796;42.654;23.316;2023-11-19T10:05:04;5.30;;;3.85;;
29196;SDS011;62796;42.654;23.316;2023-11-19T10:07:32;6.53;;;4.18;;
29196;SDS011;62796;42.654;23.316;2023-11-19T10:10:01;7.70;;;4.38;;
29196;SDS011;62796;42.654;23.316;2023-11-19T10:12:29;7.38;;;4.72;;
29196;SDS011;62796;42.654;23.316;2023-11-19T10:14:56;7.75;;;5.00;;
29196;SDS011;62796;42.654;23.316;2023-11-19T10:17:27;5.65;;;3.67;;
29196;SDS011;62796;42.654;23.316;2023-11-19T10:19:54;5.47;;;4.18;;
29196;SDS011;62796;42.654;23.316;2023-11-19T10:22:21;6.55;;;4.47;;
29196;SDS011;62796;42.654;23.316;2023-11-19T10:24:49;5.10;;;4.05;;
29196;SDS011;62796;42.654;23.316;2023-11-19T10:27:14;11.35;;;4.30;;
29196;SDS011;62796;42.654;23.316;2023-11-19T10:29:40;5.63;;;3.92;;
29196;SDS011;62796;42.654;23.316;2023-11-19T10:32:10;5.90;;;4.28;;
29196;SDS011;62796;42.654;23.316;2023-11-19T10:34:37;4.75;;;3.67;;
29196;SDS011;62796;42.654;23.316;2023-11-19T10:37:04;6.53;;;3.97;;
29196;SDS011;62796;42.654;23.316;2023-11-19T10:40:03;5.15;;;4.03;;
29196;SDS011;62796;42.654;23.316;2023-11-19T10:42:23;6.43;;;4.30;;
29196;SDS011;62796;42.654;23.316;2023-11-19T10:44:48;6.93;;;4.40;;
29196;SDS011;62796;42.654;23.316;2023-11-19T10:47:14;6.18;;;4.40;;
29196;SDS011;62796;42.654;23.316;2023-11-19T10:49:43;4.20;;;3.10;;
29196;SDS011;62796;42.654;23.316;2023-11-19T10:52:10;7.38;;;4.03;;
29196;SDS011;62796;42.654;23.316;2023-11-19T10:54:39;3.67;;;3.20;;
29196;SDS011;62796;42.654;23.316;2023-11-19T10:57:09;4.95;;;3.10;;
29196;SDS011;62796;42.654;23.316;2023-11-19T10:59:39;5.10;;;2.53;;
29196;SDS011;62796;42.654;23.316;2023-11-19T11:02:08;5.38;;;3.35;;
29196;SDS011;62796;42.654;23.316;2023-11-19T11:04:39;5.13;;;3.20;;
29196;SDS011;62796;42.654;23.316;2023-11-19T11:07:07;5.43;;;3.30;;
29196;SDS011;62796;42.654;23.316;2023-11-19T11:09:33;7.57;;;3.42;;
29196;SDS011;62796;42.654;23.316;2023-11-19T11:12:00;5.97;;;3.25;;
29196;SDS011;62796;42.654;23.316;2023-11-19T11:14:26;4.47;;;3.35;;
29196;SDS011;62796;42.654;23.316;2023-11-19T11:16:53;5.40;;;3.25;;
29196;SDS011;62796;42.654;23.316;2023-11-19T11:19:21;4.32;;;3.08;;
29196;SDS011;62796;42.654;23.316;2023-11-19T11:21:52;3.60;;;2.97;;
29196;SDS011;62796;42.654;23.316;2023-11-19T11:30:06;4.63;;;3.43;;
29196;SDS011;62796;42.654;23.316;2023-11-19T11:38:21;5.28;;;3.95;;
29196;SDS011;62796;42.654;23.316;2023-11-19T11:48:57;7.03;;;3.88;;
29196;SDS011;62796;42.654;23.316;2023-11-19T11:54:10;7.10;;;3.92;;
29196;SDS011;62796;42.654;23.316;2023-11-19T11:56:39;5.53;;;3.55;;
29196;SDS011;62796;42.654;23.316;2023-11-19T11:59:08;6.72;;;3.33;;
29196;SDS011;62796;42.654;23.316;2023-11-19T12:01:57;5.45;;;3.33;;
29196;SDS011;62796;42.654;23.316;2023-11-19T12:04:25;5.03;;;3.30;;
29196;SDS011;62796;42.654;23.316;2023-11-19T12:09:47;5.78;;;3.63;;
29196;SDS011;62796;42.654;23.316;2023-11-19T12:20:01;5.53;;;3.05;;
29196;SDS011;62796;42.654;23.316;2023-11-19T12:22:30;6.22;;;3.30;;
29196;SDS011;62796;42.654;23.316;2023-11-19T12:24:56;4.57;;;3.08;;
29196;SDS011;62796;42.654;23.316;2023-11-19T12:27:21;4.63;;;2.78;;
29196;SDS011;62796;42.654;23.316;2023-11-19T12:29:47;3.83;;;2.67;;
29196;SDS011;62796;42.654;23.316;2023-11-19T12:32:16;3.83;;;3.22;;
29196;SDS011;62796;42.654;23.316;2023-11-19T12:34:41;4.40;;;2.83;;
29196;SDS011;62796;42.654;23.316;2023-11-19T12:37:07;5.30;;;3.10;;
29196;SDS011;62796;42.654;23.316;2023-11-19T12:39:34;4.03;;;2.80;;
29196;SDS011;62796;42.654;23.316;2023-11-19T12:42:00;6.25;;;3.30;;
29196;SDS011;62796;42.654;23.316;2023-11-19T12:44:26;6.05;;;3.47;;
29196;SDS011;62796;42.654;23.316;2023-11-19T12:47:01;8.30;;;3.30;;
29196;SDS011;62796;42.654;23.316;2023-11-19T12:49:31;6.78;;;3.92;;
29196;SDS011;62796;42.654;23.316;2023-11-19T12:51:58;6.82;;;4.25;;
29196;SDS011;62796;42.654;23.316;2023-11-19T12:54:33;6.03;;;4.65;;
29196;SDS011;62796;42.654;23.316;2023-11-19T12:57:02;16.08;;;5.43;;
29196;SDS011;62796;42.654;23.316;2023-11-19T12:59:29;10.52;;;4.00;;
29196;SDS011;62796;42.654;23.316;2023-11-19T13:01:58;11.57;;;5.15;;
29196;SDS011;62796;42.654;23.316;2023-11-19T13:04:27;6.68;;;4.40;;
29196;SDS011;62796;42.654;23.316;2023-11-19T13:06:53;6.60;;;4.68;;
29196;SDS011;62796;42.654;23.316;2023-11-19T13:09:28;7.10;;;4.88;;
29196;SDS011;62796;42.654;23.316;2023-11-19T13:11:54;7.63;;;5.95;;
29196;SDS011;62796;42.654;23.316;2023-11-19T13:14:35;6.93;;;4.68;;
29196;SDS011;62796;42.654;23.316;2023-11-19T13:17:04;11.05;;;6.85;;
29196;SDS011;62796;42.654;23.316;2023-11-19T13:19:30;9.23;;;4.35;;
29196;SDS011;62796;42.654;23.316;2023-11-19T13:21:56;6.82;;;4.40;;
29196;SDS011;62796;42.654;23.316;2023-11-19T13:24:22;9.05;;;5.00;;
29196;SDS011;62796;42.654;23.316;2023-11-19T13:26:47;8.07;;;5.28;;
29196;SDS011;62796;42.654;23.316;2023-11-19T13:29:12;6.85;;;5.35;;
29196;SDS011;62796;42.654;23.316;2023-11-19T13:31:38;5.75;;;4.97;;
29196;SDS011;62796;42.654;23.316;2023-11-19T13:34:03;8.88;;;4.85;;
29196;SDS011;62796;42.654;23.316;2023-11-19T13:36:29;7.93;;;3.80;;
29196;SDS011;62796;42.654;23.316;2023-11-19T13:38:56;3.13;;;2.63;;
29196;SDS011;62796;42.654;23.316;2023-11-19T13:41:24;2.92;;;2.63;;
29196;SDS011;62796;42.654;23.316;2023-11-19T13:43:50;4.25;;;2.30;;
29196;SDS011;62796;42.654;23.316;2023-11-19T13:46:16;6.35;;;2.75;;
29196;SDS011;62796;42.654;23.316;2023-11-19T13:48:41;4.35;;;2.33;;
29196;SDS011;62796;42.654;23.316;2023-11-19T13:51:07;3.20;;;2.20;;
29196;SDS011;62796;42.654;23.316;2023-11-19T13:53:34;4.13;;;2.75;;
29196;SDS011;62796;42.654;23.316;2023-11-19T13:56:00;7.78;;;3.40;;
29196;SDS011;62796;42.654;23.316;2023-11-19T13:58:25;7.97;;;3.22;;
29196;SDS011;62796;42.654;23.316;2023-11-19T14:00:51;3.90;;;2.92;;
29196;SDS011;62796;42.654;23.316;2023-11-19T14:03:16;5.15;;;3.60;;
29196;SDS011;62796;42.654;23.316;2023-11-19T14:05:41;4.30;;;2.95;;
29196;SDS011;62796;42.654;23.316;2023-11-19T14:08:07;7.90;;;3.78;;
29196;SDS011;62796;42.654;23.316;2023-11-19T14:10:38;11.00;;;4.15;;
29196;SDS011;62796;42.654;23.316;2023-11-19T14:13:05;9.10;;;3.55;;
29196;SDS011;62796;42.654;23.316;2023-11-19T14:15:34;7.95;;;3.92;;
29196;SDS011;62796;42.654;23.316;2023-11-19T14:18:00;12.63;;;4.75;;
29196;SDS011;62796;42.654;23.316;2023-11-19T14:20:26;11.82;;;5.25;;
29196;SDS011;62796;42.654;23.316;2023-11-19T14:22:52;10.30;;;4.82;;
29196;SDS011;62796;42.654;23.316;2023-11-19T14:25:17;8.75;;;4.22;;
29196;SDS011;62796;42.654;23.316;2023-11-19T14:27:43;12.98;;;5.95;;
29196;SDS011;62796;42.654;23.316;2023-11-19T14:30:11;9.02;;;5.78;;
29196;SDS011;62796;42.654;23.316;2023-11-19T14:32:41;11.63;;;6.05;;
29196;SDS011;62796;42.654;23.316;2023-11-19T14:35:09;11.52;;;7.18;;
29196;SDS011;62796;42.654;23.316;2023-11-19T14:37:35;17.38;;;6.72;;
29196;SDS011;62796;42.654;23.316;2023-11-19T14:40:00;14.48;;;7.68;;
29196;SDS011;62796;42.654;23.316;2023-11-19T14:42:29;12.10;;;6.07;;
29196;SDS011;62796;42.654;23.316;2023-11-19T14:44:54;12.20;;;6.93;;
29196;SDS011;62796;42.654;23.316;2023-11-19T14:47:20;11.93;;;7.20;;
29196;SDS011;62796;42.654;23.316;2023-11-19T14:49:46;18.67;;;8.48;;
29196;SDS011;62796;42.654;23.316;2023-11-19T14:52:12;12.40;;;7.90;;
29196;SDS011;62796;42.654;23.316;2023-11-19T14:54:38;10.20;;;7.10;;
29196;SDS011;62796;42.654;23.316;2023-11-19T14:57:04;13.88;;;7.38;;
29196;SDS011;62796;42.654;23.316;2023-11-19T14:59:30;16.58;;;7.50;;
29196;SDS011;62796;42.654;23.316;2023-11-19T15:01:55;10.30;;;6.40;;
29196;SDS011;62796;42.654;23.316;2023-11-19T15:04:20;14.20;;;7.25;;
29196;SDS011;62796;42.654;23.316;2023-11-19T15:06:46;13.43;;;7.45;;